createdAt,value
2024-03-05T00:01:13.689Z,103601.94
2024-03-05T00:04:00.574Z,103593.00
2024-03-05T00:06:47.786Z,103612.50
2024-03-05T00:09:34.655Z,103605.47
2024-03-05T00:12:21.728Z,103618.66
2024-03-05T00:15:08.610Z,103623.94
2024-03-05T00:17:55.573Z,103620.41
2024-03-05T00:20:42.513Z,103623.03
2024-03-05T00:23:29.341Z,103625.66
2024-03-05T00:26:16.215Z,103627.41
2024-03-05T00:29:03.252Z,103628.25
2024-03-05T00:31:50.374Z,103639.69
2024-03-05T00:34:37.394Z,103635.25
2024-03-05T00:37:24.339Z,103636.06
2024-03-05T00:40:11.369Z,103627.28
2024-03-05T00:42:58.904Z,103629.09
2024-03-05T00:45:45.776Z,103630.84
2024-03-05T00:48:32.701Z,103633.47
2024-03-05T00:51:19.541Z,103631.72
2024-03-05T00:54:06.456Z,103642.22
2024-03-05T00:56:53.395Z,103608.38
2024-03-05T00:59:40.294Z,103592.44
2024-03-05T01:02:27.371Z,103639.56
2024-03-05T01:05:15.277Z,103601.31
2024-03-05T01:08:02.396Z,103640.44
2024-03-05T01:10:49.474Z,103636.03
2024-03-05T01:13:36.431Z,103641.28
2024-03-05T01:16:23.539Z,103640.41
2024-03-05T01:19:10.391Z,103632.50
2024-03-05T01:21:57.278Z,103625.50
2024-03-05T01:24:44.116Z,103637.75
2024-03-05T01:27:30.999Z,103635.09
2024-03-05T01:30:17.986Z,103639.53
2024-03-05T01:33:04.949Z,103641.25
2024-03-05T01:35:52.263Z,103634.25
2024-03-05T01:38:39.260Z,103621.84
2024-03-05T01:41:26.083Z,103633.31
2024-03-05T01:44:12.931Z,103629.78
2024-03-05T01:47:01.135Z,103624.50
2024-03-05T01:49:50.067Z,103633.38
2024-03-05T01:52:36.996Z,103640.38
2024-03-05T01:55:30.956Z,103645.63
2024-03-05T01:58:19.067Z,103637.69
2024-03-05T02:01:07.255Z,103634.19
2024-03-05T02:03:58.478Z,103638.56
2024-03-05T02:06:45.594Z,103637.66
2024-03-05T02:09:32.516Z,103641.22
2024-03-05T02:12:19.757Z,103637.69
2024-03-05T02:15:06.716Z,103632.44
2024-03-05T02:17:53.642Z,103630.69
2024-03-05T02:21:00.570Z,103635.06
2024-03-05T02:23:47.419Z,103635.06
2024-03-05T02:26:34.930Z,103626.31
2024-03-05T02:29:23.053Z,103627.13
2024-03-05T02:32:10.551Z,103621.88
2024-03-05T02:34:57.481Z,103628.91
2024-03-05T02:37:44.421Z,103614.81
2024-03-05T02:40:35.036Z,103624.47
2024-03-05T02:43:21.988Z,103624.41
2024-03-05T02:46:08.998Z,103626.25
2024-03-05T02:48:55.856Z,103633.22
2024-03-05T02:51:42.944Z,103631.47
2024-03-05T02:54:29.816Z,103627.00
2024-03-05T02:57:16.623Z,103638.50
2024-03-05T03:00:03.577Z,103642.00
2024-03-05T03:02:50.630Z,103613.53
2024-03-05T03:05:38.965Z,103634.06
2024-03-05T03:08:25.965Z,103642.88
2024-03-05T03:11:12.904Z,103627.69
2024-03-05T03:13:59.951Z,103645.47
2024-03-05T03:16:46.877Z,103649.88
2024-03-05T03:19:33.861Z,103648.09
2024-03-05T03:22:20.800Z,103647.22
2024-03-05T03:25:07.671Z,103653.34
2024-03-05T03:27:54.508Z,103629.28
2024-03-05T03:30:41.448Z,103655.94
2024-03-05T03:33:28.315Z,103650.66
2024-03-05T03:36:15.229Z,103655.09
2024-03-05T03:39:02.133Z,103652.47
2024-03-05T03:41:50.085Z,103644.53
2024-03-05T03:44:37.125Z,103654.13
2024-03-05T03:47:23.976Z,103614.25
2024-03-05T03:50:10.903Z,103648.00
2024-03-05T03:53:01.103Z,103648.03
2024-03-05T03:55:48.052Z,103652.41
2024-03-05T03:58:34.986Z,103650.66
2024-03-05T04:01:22.419Z,103654.16
2024-03-05T04:04:09.816Z,103648.81
2024-03-05T04:06:56.668Z,103652.38
2024-03-05T04:09:43.568Z,103652.31
2024-03-05T04:12:30.431Z,103647.06
2024-03-05T04:15:17.268Z,103653.25
2024-03-05T04:18:04.250Z,103643.59
2024-03-05T04:20:51.171Z,103652.38
2024-03-05T04:23:38.098Z,103657.66
2024-03-05T04:26:25.170Z,103653.22
2024-03-05T04:29:12.089Z,103647.97
2024-03-05T04:31:58.980Z,103647.91
2024-03-05T04:34:46.014Z,103626.66
2024-03-05T04:37:33.050Z,103647.97
2024-03-05T04:40:20.112Z,103651.44
2024-03-05T04:43:07.008Z,103647.09
2024-03-05T04:45:55.037Z,103655.84
2024-03-05T04:48:42.015Z,103654.03
2024-03-05T04:51:32.011Z,103652.34
2024-03-05T04:54:18.915Z,103659.31
2024-03-05T04:57:05.749Z,103661.97
2024-03-05T04:59:53.828Z,103656.72
2024-03-05T05:02:40.908Z,103653.19
2024-03-05T05:05:28.071Z,103662.84
2024-03-05T05:08:16.094Z,103658.44
2024-03-05T05:11:03.076Z,103666.34
2024-03-05T05:13:49.983Z,103672.47
2024-03-05T05:16:36.907Z,103641.44
2024-03-05T05:19:23.770Z,103673.38
2024-03-05T05:22:10.778Z,103670.72
2024-03-05T05:24:57.793Z,103672.47
2024-03-05T05:27:44.697Z,103675.06
2024-03-05T05:30:31.708Z,103658.13
2024-03-05T05:33:18.837Z,103679.44
2024-03-05T05:36:05.806Z,103682.03
2024-03-05T05:38:52.639Z,103683.84
2024-03-05T05:41:39.592Z,103683.75
2024-03-05T05:44:26.446Z,103685.56
2024-03-05T05:47:13.419Z,103693.53
2024-03-05T05:50:00.595Z,103695.25
2024-03-05T05:52:47.601Z,103686.50
2024-03-05T05:55:34.545Z,103693.41
2024-03-05T05:58:21.550Z,103697.03
2024-03-05T06:01:08.675Z,103691.69
2024-03-05T06:03:58.036Z,103689.97
2024-03-05T06:06:44.859Z,103699.66
2024-03-05T06:09:31.722Z,103683.63
2024-03-05T06:12:20.725Z,103706.69
2024-03-05T06:15:07.713Z,103710.22
2024-03-05T06:17:54.598Z,103700.56
2024-03-05T06:20:41.519Z,103699.69
2024-03-05T06:23:28.501Z,103699.72
2024-03-05T06:26:15.352Z,103705.84
2024-03-05T06:29:02.286Z,103708.47
2024-03-05T06:31:29.337Z,103698.78
2024-03-05T06:34:16.272Z,103706.78
2024-03-05T06:37:03.160Z,103705.06
2024-03-05T06:39:52.763Z,103709.44
2024-03-05T06:42:39.711Z,103710.31
2024-03-05T06:45:27.859Z,103708.59
2024-03-05T06:48:18.729Z,103714.75
2024-03-05T06:51:07.058Z,103715.69
2024-03-05T06:53:52.539Z,103706.03
2024-03-05T06:56:37.996Z,103714.84
2024-03-05T06:59:24.886Z,103706.97
2024-03-05T07:02:11.846Z,103705.25
2024-03-05T07:04:59.585Z,103702.56
2024-03-05T07:07:46.549Z,103710.59
2024-03-05T07:10:36.456Z,103709.72
2024-03-05T07:13:23.678Z,103708.03
2024-03-05T07:16:10.537Z,103704.47
2024-03-05T07:18:57.700Z,103711.59
2024-03-05T07:21:45.310Z,103709.00
2024-03-05T07:24:32.288Z,103710.81
2024-03-05T07:27:19.207Z,103716.97
2024-03-05T07:30:06.123Z,103674.31
2024-03-05T07:32:52.965Z,103710.91
2024-03-05T07:35:39.894Z,103718.00
2024-03-05T07:38:27.296Z,103715.41
2024-03-05T07:41:22.502Z,103716.31
2024-03-05T07:44:16.405Z,103716.38
2024-03-05T07:47:03.313Z,103714.69
2024-03-05T07:49:50.222Z,103706.63
2024-03-05T07:52:37.212Z,103722.66
2024-03-05T07:55:31.880Z,103718.34
2024-03-05T07:58:23.199Z,103694.28
2024-03-05T08:01:10.102Z,103726.34
2024-03-05T08:03:56.964Z,103714.88
2024-03-05T08:06:44.476Z,103738.78
2024-03-05T08:09:31.428Z,103731.78
2024-03-05T08:12:21.723Z,103724.75
2024-03-05T08:15:09.405Z,103736.31
2024-03-05T08:17:58.264Z,103737.19
2024-03-05T08:20:47.189Z,103744.28
2024-03-05T08:23:34.127Z,103746.06
2024-03-05T08:26:21.060Z,103734.72
2024-03-05T08:29:08.118Z,103739.16
2024-03-05T08:31:54.981Z,103739.19
2024-03-05T08:34:41.957Z,103738.34
2024-03-05T08:37:28.854Z,103737.56
2024-03-05T08:40:15.769Z,103732.34
2024-03-05T08:43:04.994Z,103738.50
2024-03-05T08:45:52.936Z,103692.34
2024-03-05T08:48:39.783Z,103731.59
2024-03-05T08:51:26.627Z,103741.34
2024-03-05T08:54:16.467Z,103733.31
2024-03-05T08:57:04.687Z,103735.25
2024-03-05T08:59:51.650Z,103736.19
2024-03-05T09:02:38.842Z,103734.44
2024-03-05T09:05:26.208Z,103743.28
2024-03-05T09:08:13.257Z,103738.91
2024-03-05T09:11:00.172Z,103726.47
2024-03-05T09:13:47.469Z,103744.22
2024-03-05T09:16:34.721Z,103747.75
2024-03-05T09:19:21.817Z,103746.00
2024-03-05T09:22:09.456Z,103738.06
2024-03-05T09:24:56.436Z,103734.53
2024-03-05T09:27:43.421Z,103746.06
2024-03-05T09:30:31.383Z,103746.06
2024-03-05T09:33:18.303Z,103734.66
2024-03-05T09:35:45.204Z,103745.28
2024-03-05T09:38:32.105Z,103740.06
2024-03-05T09:41:19.111Z,103741.91
2024-03-05T09:43:46.984Z,103739.38
2024-03-05T09:46:34.958Z,103743.84
2024-03-05T09:49:23.410Z,103746.59
2024-03-05T09:52:12.138Z,103713.97
2024-03-05T09:54:58.959Z,103733.56
2024-03-05T09:57:46.830Z,103736.22
2024-03-05T10:00:38.393Z,103741.72
2024-03-05T10:03:27.193Z,103733.00
2024-03-05T10:06:14.226Z,103724.22
2024-03-05T10:09:01.245Z,103732.22
2024-03-05T10:11:48.893Z,103738.50
2024-03-05T10:14:35.806Z,103727.03
2024-03-05T10:17:22.664Z,103738.63
2024-03-05T10:20:09.544Z,103728.13
2024-03-05T10:22:56.599Z,103726.41
2024-03-05T10:25:43.607Z,103730.88
2024-03-05T10:28:30.583Z,103730.03
2024-03-05T10:31:20.262Z,103722.16
2024-03-05T10:34:07.201Z,103726.69
2024-03-05T10:37:04.025Z,103733.81
2024-03-05T10:39:53.849Z,103731.28
2024-03-05T10:42:43.153Z,103735.75
2024-03-05T10:45:30.541Z,103732.25
2024-03-05T10:48:20.445Z,103742.84
2024-03-05T10:51:10.158Z,103733.19
2024-03-05T10:53:57.264Z,103734.94
2024-03-05T10:56:45.379Z,103739.41
2024-03-05T10:59:12.628Z,103735.00
2024-03-05T11:02:00.572Z,103735.00
2024-03-05T11:04:51.429Z,103733.28
2024-03-05T11:07:38.428Z,103720.84
2024-03-05T11:10:26.557Z,103730.66
2024-03-05T11:13:13.800Z,103727.16
2024-03-05T11:16:01.063Z,103727.22
2024-03-05T11:18:52.438Z,103734.38
2024-03-05T11:21:39.291Z,103729.13
2024-03-05T11:24:26.792Z,103716.72
2024-03-05T11:27:22.758Z,103734.50
2024-03-05T11:30:09.637Z,103733.66
2024-03-05T11:32:57.578Z,103728.41
2024-03-05T11:35:47.019Z,103735.50
2024-03-05T11:38:34.567Z,103726.69
2024-03-05T11:41:21.437Z,103722.31
2024-03-05T11:44:08.406Z,103716.16
2024-03-05T11:47:13.591Z,103718.78
2024-03-05T11:50:00.661Z,103725.03
2024-03-05T11:52:48.826Z,103725.91
2024-03-05T11:55:45.784Z,103720.59
2024-03-05T11:58:32.711Z,103721.50
2024-03-05T12:01:23.828Z,103721.50
2024-03-05T12:04:24.756Z,103718.00
2024-03-05T12:07:18.964Z,103724.22
2024-03-05T12:10:05.973Z,103720.75
2024-03-05T12:12:52.867Z,103715.50
2024-03-05T12:15:40.632Z,103704.06
2024-03-05T12:18:31.284Z,103704.06
2024-03-05T14:45:18.035Z,103612.91
2024-03-05T14:48:05.778Z,103635.09
2024-03-05T14:50:52.688Z,103632.44
2024-03-05T14:53:40.933Z,103635.94
2024-03-05T14:56:31.227Z,103618.25
2024-03-05T14:59:18.550Z,103627.97
2024-03-05T15:02:05.686Z,103626.19
2024-03-05T15:04:52.865Z,103625.25
2024-03-05T15:07:39.800Z,103627.03
2024-03-05T15:10:28.373Z,103617.25
2024-03-05T15:13:15.679Z,103588.00
2024-03-05T15:16:02.582Z,103611.91
2024-03-05T15:18:49.410Z,103619.81
2024-03-05T15:21:36.273Z,103619.78
2024-03-05T15:24:23.233Z,103615.38
2024-03-05T15:27:10.079Z,103618.81
2024-03-05T15:29:57.054Z,103613.50
2024-03-05T15:32:43.982Z,103611.72
2024-03-05T15:35:31.015Z,103616.06
2024-03-05T15:38:18.353Z,103619.59
2024-03-05T15:41:05.229Z,103613.38
2024-03-05T15:43:55.273Z,103613.38
2024-03-05T15:46:42.209Z,103612.47
2024-03-05T15:49:29.068Z,103613.31
2024-03-05T15:52:16.133Z,103608.03
2024-03-05T15:55:02.985Z,103610.63
2024-03-05T15:57:49.843Z,103600.91
2024-03-05T16:00:37.018Z,103599.97
2024-03-05T16:03:26.336Z,103604.31
2024-03-05T16:06:00.753Z,103605.19
2024-03-05T16:08:53.677Z,103601.63
2024-03-05T16:11:40.823Z,103603.34
2024-03-05T16:14:28.129Z,103599.81
2024-03-05T16:17:15.100Z,103600.66
2024-03-05T16:20:03.212Z,103607.66
2024-03-05T16:22:50.187Z,103606.75
2024-03-05T16:25:37.102Z,103592.63
2024-03-05T16:28:24.302Z,103606.63
2024-03-05T16:31:13.156Z,103612.78
2024-03-05T16:34:01.473Z,103611.00
2024-03-05T16:36:48.558Z,103607.44
2024-03-05T16:39:35.515Z,103609.97
2024-03-05T16:42:22.333Z,103610.84
2024-03-05T16:45:09.159Z,103603.75
2024-03-05T16:47:56.117Z,103608.13
2024-03-05T16:50:44.280Z,103602.78
2024-03-05T16:53:31.427Z,103593.06
2024-03-05T16:56:18.333Z,103605.38
2024-03-05T16:59:05.567Z,103571.66
2024-03-05T17:01:52.538Z,103610.56
2024-03-05T17:04:39.462Z,103600.91
2024-03-05T17:07:26.418Z,103604.41
2024-03-05T17:10:13.350Z,103606.13
2024-03-05T17:13:00.809Z,103600.75
2024-03-05T17:16:00.094Z,103607.81
2024-03-05T17:18:47.512Z,103577.59
2024-03-05T17:21:34.428Z,103615.69
2024-03-05T17:24:21.239Z,103611.22
2024-03-05T17:27:08.205Z,103605.06
2024-03-05T17:29:55.038Z,103605.06
2024-03-05T17:32:41.884Z,103595.34
2024-03-05T17:35:29.032Z,103587.28
2024-03-05T17:38:15.944Z,103605.88
2024-03-05T17:41:02.981Z,103606.72
2024-03-05T17:43:50.450Z,103603.19
2024-03-05T17:46:39.302Z,103608.47
2024-03-05T17:49:26.492Z,103606.66
2024-03-05T17:52:13.441Z,103588.88
2024-03-05T17:55:00.455Z,103603.97
2024-03-05T17:57:47.388Z,103602.22
2024-03-05T18:00:27.497Z,103599.53
2024-03-05T18:03:18.709Z,103595.97
2024-03-05T18:06:05.626Z,103605.69
2024-03-05T18:08:52.467Z,103605.66
2024-03-05T18:11:39.526Z,103602.13
2024-03-05T18:14:26.588Z,103606.50
2024-03-05T18:17:13.545Z,103601.22
2024-03-05T18:20:00.548Z,103603.00
2024-03-05T18:22:47.502Z,103597.69
2024-03-05T18:25:38.303Z,103599.44
2024-03-05T18:28:25.749Z,103599.44
2024-03-05T18:31:12.658Z,103604.69
2024-03-05T18:33:59.550Z,103595.91
2024-03-05T18:36:46.562Z,103598.50
2024-03-05T18:39:33.412Z,103609.94
2024-03-05T18:42:21.035Z,103590.50
2024-03-05T18:45:07.982Z,103592.34
2024-03-05T18:48:02.884Z,103596.75
2024-03-05T18:50:55.799Z,103596.72
2024-03-05T18:53:46.646Z,103596.72
2024-03-05T18:56:36.777Z,103597.59
2024-03-05T18:59:23.661Z,103596.66
2024-03-05T19:02:10.690Z,103599.28
2024-03-05T19:04:57.646Z,103577.09
2024-03-05T19:07:44.604Z,103595.69
2024-03-05T19:10:32.086Z,103593.06
2024-03-05T19:13:19.139Z,103594.78
2024-03-05T19:16:06.027Z,103590.41
2024-03-05T19:18:52.979Z,103574.41
2024-03-05T19:21:39.842Z,103588.59
2024-03-05T19:24:26.754Z,103598.25
2024-03-05T19:27:14.082Z,103580.59
2024-03-05T19:30:01.049Z,103590.25
2024-03-05T19:32:48.356Z,103584.13
2024-03-05T19:35:37.396Z,103543.25
2024-03-05T19:38:24.724Z,103588.50
2024-03-05T19:41:11.751Z,103585.84
2024-03-05T19:44:02.232Z,103571.78
2024-03-05T19:46:49.162Z,103574.41
2024-03-05T19:49:38.758Z,103574.38
2024-03-05T19:52:25.646Z,103570.81
2024-03-05T19:55:12.577Z,103570.84
2024-03-05T19:57:59.461Z,103574.38
2024-03-05T20:00:26.743Z,103576.09
2024-03-05T20:03:14.308Z,103564.63
2024-03-05T20:06:01.299Z,103570.81
2024-03-05T20:08:48.154Z,103569.06
2024-03-05T20:11:35.177Z,103572.53
2024-03-05T20:14:22.276Z,103578.69
2024-03-05T20:17:05.819Z,103583.09
2024-03-05T20:19:52.922Z,103572.44
2024-03-05T20:22:40.076Z,103574.28
2024-03-05T20:25:27.271Z,103574.28
2024-03-05T20:28:14.371Z,103576.88
2024-03-05T20:31:01.240Z,103570.69
2024-03-05T20:33:48.123Z,103581.28
2024-03-05T20:36:35.086Z,103574.25
2024-03-05T20:39:22.034Z,103575.16
2024-03-05T20:42:08.964Z,103573.34
2024-03-05T20:44:55.885Z,103573.34
2024-03-05T20:47:43.066Z,103576.84
2024-03-05T20:50:31.171Z,103571.56
2024-03-05T20:53:18.072Z,103569.81
2024-03-05T20:56:05.173Z,103566.31
2024-03-05T20:58:52.036Z,103563.66
2024-03-05T21:01:38.993Z,103562.78
2024-03-05T21:04:25.922Z,103565.41
2024-03-05T21:07:12.757Z,103566.31
2024-03-05T21:09:59.624Z,103561.06
2024-03-05T21:12:46.480Z,103554.88
2024-03-05T21:15:33.546Z,103554.81
2024-03-05T21:18:20.418Z,103555.72
2024-03-05T21:21:07.470Z,103559.25
2024-03-05T21:23:54.392Z,103561.00
2024-03-05T21:26:54.460Z,103551.31
2024-03-05T21:29:48.229Z,103548.69
2024-03-05T21:32:35.232Z,103552.16
2024-03-05T21:35:22.898Z,103553.94
2024-03-05T21:38:09.896Z,103558.28
2024-03-05T21:40:56.843Z,103553.91
2024-03-05T21:43:43.764Z,103553.88
2024-03-05T21:46:10.974Z,103561.78
2024-03-05T21:48:37.881Z,103554.69
2024-03-05T21:51:24.848Z,103554.69
2024-03-05T21:54:11.762Z,103555.56
2024-03-05T21:56:58.654Z,103552.00
2024-03-05T21:59:45.539Z,103553.75
2024-03-05T22:02:32.501Z,103558.16
2024-03-05T22:05:19.389Z,103559.88
2024-03-05T22:08:07.704Z,103552.84
2024-03-05T22:10:54.544Z,103554.56
2024-03-05T22:13:41.456Z,103550.06
2024-03-05T22:16:28.350Z,103557.16
2024-03-05T22:19:15.234Z,103556.25
2024-03-05T22:22:02.060Z,103554.50
2024-03-05T22:24:48.929Z,103543.06
2024-03-05T22:27:36.134Z,103557.09
2024-03-05T22:30:24.091Z,103546.53
2024-03-05T22:33:11.072Z,103550.91
2024-03-05T22:35:59.168Z,103555.31
2024-03-05T22:38:46.078Z,103556.09
2024-03-05T22:41:33.483Z,103560.53
2024-03-05T22:44:20.355Z,103559.59
2024-03-05T22:47:07.324Z,103559.59
2024-03-05T22:49:54.394Z,103537.47
2024-03-05T22:52:41.313Z,103554.28
2024-03-05T22:55:29.786Z,103557.78
2024-03-05T22:58:16.732Z,103550.72
2024-03-05T23:01:03.593Z,103552.47
2024-03-05T23:03:50.446Z,103539.13
2024-03-05T23:06:37.447Z,103549.81
2024-03-05T23:09:24.333Z,103548.03
2024-03-05T23:12:11.294Z,103552.38
2024-03-05T23:14:58.212Z,103540.91
2024-03-05T23:17:45.195Z,103556.75
2024-03-05T23:20:32.728Z,103554.09
2024-03-05T23:23:19.636Z,103557.59
2024-03-05T23:26:06.594Z,103561.06
2024-03-05T23:28:53.461Z,103545.94
2024-03-05T23:31:40.345Z,103558.25
2024-03-05T23:34:27.220Z,103558.34
2024-03-05T23:37:14.071Z,103555.69
2024-03-05T23:40:00.918Z,103565.31
2024-03-05T23:42:47.864Z,103567.06
2024-03-05T23:45:34.741Z,103567.91
2024-03-05T23:48:21.670Z,103570.50
2024-03-05T23:51:08.605Z,103562.59
2024-03-05T23:53:55.439Z,103573.06
2024-03-05T23:56:42.336Z,103570.44
2024-03-05T23:59:29.181Z,103573.03
